Time;durP1;ratioP1;P1;durP2;ratioP2;P2;SDS_P1;SDS_P2;PMS_P1;PMS_P2;Temp;Humidity;BMP_temperature;BMP_pressure;BME280_temperature;BME280_humidity;BME280_pressure;Samples;Min_cycle;Max_cycle;Signal;HPM_P1;HPM_P2
2023/06/14 04:22:34;;;;;;;4.80;2.88;;;;;;;14.09;67.57;99832.50;5089329;28;20389;-66
2023/06/14 04:25:00;;;;;;;5.53;3.03;;;;;;;14.16;67.52;99835.19;5087995;28;20040;-66
2023/06/14 04:27:28;;;;;;;4.55;3.20;;;;;;;14.15;68.00;99842.41;5087890;28;20055;-66
2023/06/14 04:29:56;;;;;;;5.15;2.90;;;;;;;14.23;68.04;99838.69;5087500;28;20029;-67
2023/06/14 04:32:25;;;;;;;3.38;2.75;;;;;;;14.26;67.32;99849.78;5088078;28;20119;-66
2023/06/14 04:34:55;;;;;;;3.40;2.60;;;;;;;14.31;66.94;99844.66;5087888;28;20044;-66
2023/06/14 04:37:22;;;;;;;3.67;2.75;;;;;;;14.33;66.87;99850.59;5087742;28;20443;-67
2023/06/14 04:39:48;;;;;;;3.97;2.75;;;;;;;14.41;67.34;99844.25;5087400;28;20097;-66
2023/06/14 04:42:14;;;;;;;3.25;2.53;;;;;;;14.39;67.70;99855.13;5087565;28;20070;-67
2023/06/14 04:44:43;;;;;;;5.55;2.95;;;;;;;14.44;66.94;99853.72;5087686;28;20033;-66
2023/06/14 04:47:12;;;;;;;6.55;4.65;;;;;;;14.49;66.99;99852.09;5087503;28;20056;-64
2023/06/14 04:49:39;;;;;;;5.93;3.67;;;;;;;14.54;66.52;99857.66;5087425;28;20043;-67
2023/06/14 04:52:06;;;;;;;5.15;3.72;;;;;;;14.62;66.46;99860.09;5087502;28;20032;-66
2023/06/14 04:54:41;;;;;;;3.75;3.33;;;;;;;14.69;66.25;99861.94;5087433;28;20107;-66
2023/06/14 04:57:17;;;;;;;4.68;2.90;;;;;;;14.77;65.78;99865.22;5087617;28;20481;-67
2023/06/14 04:59:44;;;;;;;3.55;2.88;;;;;;;14.82;65.68;99868.09;5087142;28;20089;-66
2023/06/14 05:02:11;;;;;;;4.10;3.08;;;;;;;14.87;65.60;99871.00;5087374;28;20036;-66
2023/06/14 05:04:39;;;;;;;4.15;2.60;;;;;;;14.91;64.94;99877.56;5088487;28;20036;-66
2023/06/14 05:07:09;;;;;;;4.57;3.20;;;;;;;14.99;65.21;99873.00;5087130;28;20051;-53
2023/06/14 05:09:37;;;;;;;4.45;2.97;;;;;;;15.16;66.01;99877.69;5086789;28;20040;-55
2023/06/14 05:12:03;;;;;;;4.13;3.30;;;;;;;15.28;65.45;99885.09;5088486;28;20052;-53
2023/06/14 05:14:29;;;;;;;4.35;3.22;;;;;;;15.36;65.04;99880.28;5088490;28;20032;-57
2023/06/14 05:16:57;;;;;;;4.30;3.10;;;;;;;15.39;63.88;99881.75;5086864;28;20048;-59
2023/06/14 05:19:22;;;;;;;4.45;2.97;;;;;;;15.38;63.81;99874.72;5087853;28;20603;-56
2023/06/14 05:21:47;;;;;;;4.85;2.88;;;;;;;15.55;64.21;99885.78;5087987;28;20127;-57
2023/06/14 05:24:14;;;;;;;5.18;3.10;;;;;;;15.60;64.67;99885.97;5088170;28;20066;-57
2023/06/14 05:26:39;;;;;;;4.00;2.80;;;;;;;15.66;64.05;99887.84;5088002;28;20040;-52
2023/06/14 05:29:05;;;;;;;3.15;2.60;;;;;;;15.80;62.39;99885.91;5087481;28;20041;-56
2023/06/14 05:31:30;;;;;;;4.50;3.28;;;;;;;15.91;61.70;99891.41;5087988;28;20057;-56
2023/06/14 05:33:56;;;;;;;4.93;2.95;;;;;;;15.97;61.94;99887.88;5074334;28;20121;-53
2023/06/14 05:36:21;;;;;;;3.95;2.97;;;;;;;15.98;61.22;99897.56;5074558;28;20040;-53
2023/06/14 05:38:47;;;;;;;3.90;3.28;;;;;;;16.13;60.87;99899.09;5074064;28;20028;-54
2023/06/14 05:41:13;;;;;;;3.85;2.92;;;;;;;16.22;60.35;99901.31;5074295;28;20112;-56
2023/06/14 05:43:38;;;;;;;6.70;3.47;;;;;;;16.30;60.18;99908.28;5074421;28;20037;-57
2023/06/14 05:46:04;;;;;;;4.20;2.65;;;;;;;16.40;59.23;99903.22;5074228;28;20451;-55
2023/06/14 05:48:30;;;;;;;3.65;2.97;;;;;;;16.49;58.37;99903.78;5073980;28;20036;-56
2023/06/14 05:50:56;;;;;;;4.70;2.97;;;;;;;16.43;58.73;99901.97;5074213;28;20551;-52
2023/06/14 05:53:21;;;;;;;5.25;3.22;;;;;;;16.45;57.80;99903.41;5074023;28;20040;-53
2023/06/14 05:55:47;;;;;;;4.35;3.03;;;;;;;16.77;57.31;99914.13;5074016;28;20492;-56
2023/06/14 05:58:13;;;;;;;3.20;2.90;;;;;;;16.80;56.72;99905.59;5074130;28;20111;-53
2023/06/14 06:00:39;;;;;;;5.90;3.10;;;;;;;16.86;57.18;99917.34;5073826;28;20099;-53
2023/06/14 06:03:04;;;;;;;3.95;3.20;;;;;;;16.92;56.50;99916.44;5074061;28;20036;-54
2023/06/14 06:05:30;;;;;;;4.65;3.03;;;;;;;16.85;57.53;99911.13;5073979;28;20047;-53
2023/06/14 06:07:55;;;;;;;3.70;2.60;;;;;;;17.04;56.90;99920.88;5073847;28;20036;-57
2023/06/14 06:10:21;;;;;;;4.25;3.17;;;;;;;16.95;57.26;99916.00;5073357;28;20511;-57
2023/06/14 06:12:48;;;;;;;3.28;2.95;;;;;;;16.96;57.59;99923.03;5073812;28;20497;-61
2023/06/14 06:15:14;;;;;;;3.45;3.05;;;;;;;17.01;56.68;99917.78;5073698;28;20045;-63
2023/06/14 06:17:40;;;;;;;5.53;3.22;;;;;;;17.11;56.78;99922.69;5073739;28;20040;-63
2023/06/14 06:20:08;;;;;;;4.07;3.08;;;;;;;17.16;57.06;99923.66;5073231;28;20109;-63
2023/06/14 06:22:36;;;;;;;5.68;3.45;;;;;;;17.15;56.86;99921.16;5073612;28;20041;-64
2023/06/14 06:25:02;;;;;;;4.55;2.97;;;;;;;17.17;56.72;99919.91;5073536;28;20032;-64
2023/06/14 06:27:27;;;;;;;4.50;3.03;;;;;;;17.22;56.92;99921.94;5073468;28;20429;-64
2023/06/14 06:29:53;;;;;;;4.38;2.90;;;;;;;17.35;57.93;99930.69;5073004;28;20094;-63
2023/06/14 06:32:18;;;;;;;4.63;3.15;;;;;;;17.48;58.20;99921.63;5073394;28;20036;-64
2023/06/14 06:34:43;;;;;;;3.38;2.97;;;;;;;17.68;56.14;99923.25;5073377;28;20477;-64
2023/06/14 06:37:09;;;;;;;4.68;3.03;;;;;;;17.63;55.21;99918.53;5073252;28;20028;-62
2023/06/14 06:39:34;;;;;;;4.10;2.85;;;;;;;17.63;55.73;99918.53;5072874;28;20432;-62
2023/06/14 06:42:00;;;;;;;4.47;3.10;;;;;;;17.69;56.44;99924.88;5073155;28;20037;-62
2023/06/14 06:44:32;;;;;;;3.58;3.25;;;;;;;17.77;56.38;99921.91;5070964;28;20477;-61
2023/06/14 06:46:58;;;;;;;3.08;2.78;;;;;;;17.81;56.38;99925.78;5071765;28;20039;-61
2023/06/14 06:49:24;;;;;;;4.05;3.10;;;;;;;17.90;55.45;99935.19;5071264;28;20036;-63
2023/06/14 06:52:15;;;;;;;5.20;3.35;;;;;;;17.95;54.11;99938.03;5072825;28;20045;-62
2023/06/14 06:54:41;;;;;;;7.57;3.17;;;;;;;18.09;54.65;99935.94;5070378;28;20055;-62
2023/06/14 06:57:07;;;;;;;4.18;3.53;;;;;;;18.15;54.73;99943.13;5071501;28;20028;-62
2023/06/14 06:59:33;;;;;;;3.70;2.97;;;;;;;18.27;54.89;99940.47;5072310;28;20481;-62
2023/06/14 07:01:58;;;;;;;6.22;3.90;;;;;;;18.30;54.50;99945.38;5072715;28;20039;-62
2023/06/14 07:04:24;;;;;;;4.40;3.28;;;;;;;18.30;54.39;99940.00;5072682;28;20036;-62
2023/06/14 07:06:49;;;;;;;4.18;3.40;;;;;;;18.43;54.86;99956.78;5072595;28;20081;-61
2023/06/14 07:09:16;;;;;;;3.60;2.90;;;;;;;18.63;53.71;99955.63;5072292;28;20044;-63
2023/06/14 07:11:43;;;;;;;8.65;3.22;;;;;;;18.67;53.21;99948.75;5072519;28;20032;-62
2023/06/14 07:14:09;;;;;;;3.95;3.33;;;;;;;18.57;53.53;99946.59;5071130;28;20041;-63
2023/06/14 07:16:34;;;;;;;6.32;3.05;;;;;;;18.71;52.87;99949.91;5072241;28;20040;-64
2023/06/14 07:19:02;;;;;;;6.45;3.10;;;;;;;18.62;52.26;99954.00;5072306;28;20115;-64
2023/06/14 07:21:27;;;;;;;3.70;3.08;;;;;;;18.67;52.34;99956.88;5072178;28;20075;-63
2023/06/14 07:23:53;;;;;;;4.40;3.40;;;;;;;18.91;52.21;99961.22;5072411;28;20078;-62
2023/06/14 07:26:19;;;;;;;4.10;2.97;;;;;;;18.86;51.46;99952.19;5072144;28;20028;-62
2023/06/14 07:28:44;;;;;;;4.10;2.90;;;;;;;18.97;51.53;99957.59;5071956;28;20385;-62
2023/06/14 07:31:10;;;;;;;6.50;3.22;;;;;;;19.15;51.17;99966.59;5070867;28;20090;-62
2023/06/14 07:33:36;;;;;;;4.47;2.95;;;;;;;19.16;50.90;99969.06;5072129;28;20473;-62
2023/06/14 07:36:02;;;;;;;7.32;3.20;;;;;;;19.36;50.43;99967.84;5071921;28;20041;-61
2023/06/14 07:38:28;;;;;;;6.32;3.10;;;;;;;19.47;50.68;99967.84;5071903;28;20044;-63
2023/06/14 07:40:53;;;;;;;6.25;3.22;;;;;;;19.66;49.23;99971.22;5071992;28;20036;-60
2023/06/14 07:43:18;;;;;;;5.25;3.15;;;;;;;19.92;48.17;99969.03;5071965;28;20037;-62
2023/06/14 07:45:44;;;;;;;4.10;3.03;;;;;;;19.93;48.62;99970.69;5071743;28;20051;-62
2023/06/14 07:48:09;;;;;;;4.63;3.15;;;;;;;20.04;47.94;99970.63;5071954;28;20440;-61
2023/06/14 07:50:35;;;;;;;6.90;3.28;;;;;;;20.22;47.20;99975.03;5071605;28;20041;-61
2023/06/14 07:53:00;;;;;;;3.30;2.80;;;;;;;20.18;47.46;99973.03;5071883;28;20056;-62
2023/06/14 07:55:26;;;;;;;3.83;2.90;;;;;;;20.23;47.59;99973.97;5071552;28;20131;-61
2023/06/14 07:57:52;;;;;;;5.80;3.53;;;;;;;20.30;47.46;99966.50;5071934;28;20056;-62
2023/06/14 08:00:19;;;;;;;5.43;3.30;;;;;;;20.57;47.22;99974.84;5071517;28;20036;-62
2023/06/14 08:02:45;;;;;;;4.05;2.90;;;;;;;20.45;47.22;99974.09;5072030;28;20040;-61
2023/06/14 08:05:11;;;;;;;3.88;2.95;;;;;;;20.42;46.97;99968.34;5071773;28;20036;-61
2023/06/14 08:07:37;;;;;;;4.18;2.63;;;;;;;20.77;46.10;99968.94;5071975;28;20090;-62
2023/06/14 08:10:04;;;;;;;4.90;3.60;;;;;;;20.96;45.80;99968.69;5071554;28;20086;-62
2023/06/14 08:12:29;;;;;;;4.35;3.38;;;;;;;20.84;45.94;99972.28;5071718;28;20044;-63
2023/06/14 08:14:55;;;;;;;7.75;3.58;;;;;;;20.90;46.63;99967.78;5071770;28;20143;-63
2023/06/14 08:17:20;;;;;;;3.13;2.58;;;;;;;21.09;44.88;99971.03;5071781;28;20400;-63
2023/06/14 08:19:46;;;;;;;5.03;3.03;;;;;;;21.12;46.56;99971.34;5071524;28;20039;-62
2023/06/14 08:22:12;;;;;;;4.22;2.97;;;;;;;21.14;44.77;99977.34;5071502;28;20036;-61
2023/06/14 08:24:39;;;;;;;4.68;3.30;;;;;;;21.30;44.42;99981.13;5071814;28;20485;-62
2023/06/14 08:27:05;;;;;;;6.20;3.53;;;;;;;21.57;44.09;99983.91;5071679;28;20032;-63
2023/06/14 08:29:31;;;;;;;3.28;2.75;;;;;;;21.64;43.67;99976.41;5071398;28;20075;-60
2023/06/14 08:31:56;;;;;;;4.75;3.22;;;;;;;21.73;44.14;99994.97;5071426;28;20064;-62
2023/06/14 08:34:23;;;;;;;4.90;3.00;;;;;;;21.63;43.94;99977.47;5071844;28;20044;-63
2023/06/14 08:36:50;;;;;;;3.60;2.67;;;;;;;21.84;42.20;99975.00;5071645;28;20071;-61
2023/06/14 08:39:16;;;;;;;4.88;3.45;;;;;;;22.20;41.01;99984.38;5071471;28;20625;-62
2023/06/14 08:41:45;;;;;;;3.72;3.00;;;;;;;22.08;42.26;99979.06;5070459;28;20043;-62
2023/06/14 08:44:11;;;;;;;6.55;3.10;;;;;;;21.89;41.97;99977.78;5071496;28;20040;-60
2023/06/14 08:46:37;;;;;;;4.10;2.72;;;;;;;22.22;41.95;99984.94;5071521;28;20246;-61
2023/06/14 08:49:06;;;;;;;4.28;3.05;;;;;;;22.30;41.20;99979.06;5071352;28;20037;-62
2023/06/14 08:51:36;;;;;;;5.45;2.88;;;;;;;22.61;40.33;99971.19;5071647;28;20086;-63
2023/06/14 08:54:05;;;;;;;4.18;2.70;;;;;;;22.66;40.24;99976.66;5071658;28;20052;-63
2023/06/14 08:56:31;;;;;;;4.35;2.70;;;;;;;22.70;41.08;99980.50;5071446;28;20121;-63
2023/06/14 08:59:02;;;;;;;4.93;3.10;;;;;;;22.84;39.77;99978.97;5071205;28;20087;-63
2023/06/14 09:01:28;;;;;;;3.47;2.83;;;;;;;22.69;40.36;99970.69;5071362;28;20115;-62
2023/06/14 09:03:54;;;;;;;3.60;3.00;;;;;;;22.51;40.07;99985.50;5071518;28;20474;-62
2023/06/14 09:06:22;;;;;;;3.90;3.03;;;;;;;22.97;40.16;99975.03;5070020;28;20032;-63
2023/06/14 09:08:48;;;;;;;3.58;2.90;;;;;;;23.00;39.85;99978.03;5074030;28;20393;-62
2023/06/14 09:11:18;;;;;;;4.57;2.80;;;;;;;22.98;40.17;99974.75;5074875;28;20040;-62
2023/06/14 09:13:44;;;;;;;4.10;2.95;;;;;;;23.14;40.27;99972.13;5075080;28;20036;-63
2023/06/14 09:16:10;;;;;;;4.85;3.00;;;;;;;23.13;40.45;99970.50;5074872;28;20549;-61
2023/06/14 09:18:44;;;;;;;5.03;3.15;;;;;;;23.27;39.49;99963.53;5074705;28;20115;-62
2023/06/14 09:21:12;;;;;;;4.50;3.30;;;;;;;23.38;39.44;99973.38;5074882;28;20033;-62
2023/06/14 09:23:39;;;;;;;4.22;2.60;;;;;;;23.27;39.17;99963.53;5074863;28;20051;-63
2023/06/14 09:26:09;;;;;;;5.10;2.90;;;;;;;23.47;38.54;99971.78;5074737;28;20362;-61
2023/06/14 09:28:35;;;;;;;4.38;3.28;;;;;;;23.47;38.80;99977.22;5074466;28;20381;-62
2023/06/14 09:31:01;;;;;;;7.25;2.95;;;;;;;23.71;38.47;99977.63;5074648;28;20033;-62
2023/06/14 09:33:27;;;;;;;4.85;2.90;;;;;;;24.20;38.34;99979.13;5074650;28;20038;-61
2023/06/14 09:35:54;;;;;;;4.25;2.78;;;;;;;24.49;38.56;99979.44;5074633;28;20036;-62
2023/06/14 09:38:20;;;;;;;6.22;3.15;;;;;;;25.04;36.74;99981.38;5074307;28;20048;-62
2023/06/14 09:40:45;;;;;;;4.45;3.35;;;;;;;24.57;37.11;99978.91;5074488;28;20066;-62
2023/06/14 09:43:11;;;;;;;5.40;3.08;;;;;;;24.78;36.16;99974.28;5074607;28;20115;-62
2023/06/14 09:45:39;;;;;;;4.47;2.95;;;;;;;24.73;36.03;99985.19;5074345;28;20143;-62
2023/06/14 09:48:07;;;;;;;4.40;2.95;;;;;;;24.97;35.45;99991.69;5074361;28;20060;-63
2023/06/14 09:50:32;;;;;;;4.57;2.78;;;;;;;25.01;36.09;99983.78;5074064;28;20610;-63
2023/06/14 09:53:06;;;;;;;3.72;3.10;;;;;;;25.31;34.97;99986.50;5074344;28;20136;-63
2023/06/14 09:55:35;;;;;;;4.75;3.03;;;;;;;25.51;34.44;99990.25;5074486;28;20447;-61
2023/06/14 09:58:04;;;;;;;5.15;2.88;;;;;;;25.33;35.60;99991.66;5074372;28;20562;-62
2023/06/14 10:00:33;;;;;;;3.45;2.70;;;;;;;25.71;34.58;99998.34;5073991;28;20051;-62
2023/06/14 10:03:06;;;;;;;3.58;3.10;;;;;;;25.87;33.99;99986.28;5074214;28;20032;-62
2023/06/14 10:05:35;;;;;;;4.03;3.28;;;;;;;25.91;34.23;99986.56;5074054;28;20042;-60
2023/06/14 10:08:04;;;;;;;4.13;3.00;;;;;;;26.12;34.41;99993.53;5072961;28;20043;-62
2023/06/14 10:10:30;;;;;;;4.20;3.05;;;;;;;26.54;32.90;99994.94;5073765;28;20059;-62
2023/06/14 10:12:56;;;;;;;6.28;2.95;;;;;;;26.09;32.82;99996.03;5074101;28;20036;-62
2023/06/14 10:15:38;;;;;;;4.18;3.15;;;;;;;26.52;32.99;99988.91;5073932;28;20485;-62
2023/06/14 10:18:20;;;;;;;3.90;2.80;;;;;;;26.88;31.92;99992.19;5073848;28;20062;-62
2023/06/14 10:21:05;;;;;;;3.63;2.90;;;;;;;26.99;31.30;99980.03;5073765;28;20127;-62
2023/06/14 10:23:35;;;;;;;5.35;3.00;;;;;;;27.03;31.33;99977.53;5073755;28;20036;-62
2023/06/14 10:26:01;;;;;;;6.50;3.22;;;;;;;27.14;31.88;99975.56;5073749;28;20413;-62
2023/06/14 10:28:26;;;;;;;5.85;2.88;;;;;;;26.95;30.98;99956.31;5073412;28;20045;-62
2023/06/14 10:31:18;;;;;;;3.58;2.65;;;;;;;27.58;29.20;99978.88;5073601;28;20095;-62
2023/06/14 10:33:56;;;;;;;3.88;2.63;;;;;;;27.64;29.67;99965.94;5071521;28;20049;-62
2023/06/14 10:36:21;;;;;;;5.03;2.85;;;;;;;27.67;29.74;99968.09;5073551;28;20041;-63
2023/06/14 10:39:07;;;;;;;3.47;3.17;;;;;;;27.91;29.41;99964.50;5073513;28;20075;-61
2023/06/14 10:41:38;;;;;;;4.55;3.05;;;;;;;28.35;29.74;99973.19;5073481;28;20041;-63
2023/06/14 10:44:13;;;;;;;3.72;2.80;;;;;;;28.96;28.08;99979.63;5073459;28;20043;-62
2023/06/14 10:46:49;;;;;;;4.15;3.00;;;;;;;28.76;27.93;99974.47;5073320;28;20033;-62
2023/06/14 10:49:42;;;;;;;5.07;2.47;;;;;;;28.98;27.05;99971.91;5072932;28;20047;-63
2023/06/14 10:52:16;;;;;;;3.35;2.67;;;;;;;28.92;28.79;99970.38;5067773;28;20135;-63
2023/06/14 10:55:21;;;;;;;4.55;2.88;;;;;;;28.43;28.01;99963.53;5073225;28;20025;-61
2023/06/14 10:57:51;;;;;;;3.45;2.67;;;;;;;28.71;28.93;99964.41;5073186;28;20043;-63
2023/06/14 11:00:27;;;;;;;3.35;2.78;;;;;;;29.34;28.51;99965.72;5072906;28;20047;-61
2023/06/14 11:03:13;;;;;;;4.22;2.60;;;;;;;28.80;28.17;99973.56;5073065;28;20064;-62
2023/06/14 11:05:47;;;;;;;4.53;3.05;;;;;;;29.01;27.70;99973.22;5072786;28;20536;-63
2023/06/14 11:08:34;;;;;;;3.55;2.60;;;;;;;28.81;27.01;99969.69;5072707;28;20043;-62
2023/06/14 11:11:00;;;;;;;4.25;3.05;;;;;;;29.28;26.94;99956.81;5072923;28;20047;-62
2023/06/14 11:13:26;;;;;;;3.90;2.70;;;;;;;29.81;26.63;99959.03;5072820;28;20444;-62
2023/06/14 11:15:57;;;;;;;5.50;3.40;;;;;;;29.72;26.37;99964.41;5072716;28;20034;-63
2023/06/14 11:18:24;;;;;;;3.25;2.75;;;;;;;30.03;27.09;99961.00;5072376;28;20040;-62
2023/06/14 11:20:50;;;;;;;4.22;2.88;;;;;;;30.47;25.95;99960.28;5072469;28;20064;-62
2023/06/14 11:23:15;;;;;;;3.22;2.85;;;;;;;30.76;26.99;99945.28;5072299;28;20441;-62
2023/06/14 11:25:41;;;;;;;3.95;2.90;;;;;;;30.80;25.54;99952.59;5072437;28;20422;-63
2023/06/14 11:28:06;;;;;;;4.27;2.87;;;;;;;30.46;25.73;99946.84;5072485;28;20083;-62
2023/06/14 11:30:32;;;;;;;4.13;3.07;;;;;;;30.22;26.04;99925.97;5071498;28;20049;-63
2023/06/14 11:32:57;;;;;;;5.40;3.10;;;;;;;29.88;26.21;99964.91;5070971;28;20047;-63
2023/06/14 11:35:24;;;;;;;4.78;3.22;;;;;;;30.41;26.88;99963.44;5072301;28;20040;-63
2023/06/14 11:37:55;;;;;;;3.90;3.03;;;;;;;30.99;26.48;99963.38;5072142;28;20032;-63
2023/06/14 11:40:24;;;;;;;4.28;3.40;;;;;;;31.39;24.92;99957.09;5071946;28;20067;-63
2023/06/14 11:42:49;;;;;;;4.40;2.92;;;;;;;31.00;25.25;99962.22;5072271;28;20080;-62
2023/06/14 11:45:15;;;;;;;4.25;3.33;;;;;;;30.41;25.56;99958.78;5072096;28;20036;-63
2023/06/14 11:47:40;;;;;;;3.83;3.10;;;;;;;30.12;25.54;99953.69;5072249;28;20063;-62
2023/06/14 11:50:08;;;;;;;4.70;2.93;;;;;;;30.06;26.13;99946.69;5071760;28;20047;-62
2023/06/14 11:52:34;;;;;;;5.35;3.67;;;;;;;29.80;26.72;99951.94;5071885;28;20040;-63
2023/06/14 11:55:02;;;;;;;3.80;3.40;;;;;;;30.12;26.73;99945.44;5071957;28;20043;-63
2023/06/14 11:57:27;;;;;;;5.65;3.55;;;;;;;29.73;27.78;99941.38;5071917;28;20397;-63
2023/06/14 11:59:55;;;;;;;4.25;3.05;;;;;;;28.97;29.47;99942.88;5071677;28;20044;-62
2023/06/14 12:02:21;;;;;;;4.22;3.50;;;;;;;28.99;28.12;99942.56;5071998;28;20032;-62
2023/06/14 12:04:51;;;;;;;4.93;3.38;;;;;;;28.37;28.92;99943.59;5071918;28;20037;-62
2023/06/14 12:07:19;;;;;;;6.40;3.80;;;;;;;27.81;29.18;99941.66;5071825;28;20119;-62
2023/06/14 12:09:53;;;;;;;4.82;3.90;;;;;;;27.68;29.04;99941.56;5071495;28;20032;-62
2023/06/14 12:12:21;;;;;;;4.40;3.53;;;;;;;27.77;29.28;99942.53;5071799;28;20048;-62
2023/06/14 12:14:47;;;;;;;3.63;3.20;;;;;;;28.23;29.94;99945.44;5071800;28;20044;-62
2023/06/14 12:17:12;;;;;;;6.80;3.60;;;;;;;28.37;29.41;99943.59;5071816;28;20043;-62
2023/06/14 12:19:42;;;;;;;4.32;3.55;;;;;;;28.90;28.33;99948.72;5071548;28;20191;-62
2023/06/14 12:22:10;;;;;;;5.38;3.67;;;;;;;29.20;28.59;99946.53;5071814;28;20032;-62
2023/06/14 12:24:35;;;;;;;4.22;3.08;;;;;;;29.94;27.34;99952.72;5071800;28;20024;-62
2023/06/14 12:27:04;;;;;;;5.07;3.53;;;;;;;29.59;27.07;99943.31;5071750;28;20409;-62
2023/06/14 12:29:30;;;;;;;3.90;3.30;;;;;;;29.37;27.79;99941.25;5071454;28;20128;-61
2023/06/14 12:31:56;;;;;;;4.68;3.45;;;;;;;29.54;27.33;99948.06;5071750;28;20116;-62
2023/06/14 12:34:26;;;;;;;5.68;3.47;;;;;;;29.08;28.72;99946.22;5071642;28;20070;-61
2023/06/14 12:36:55;;;;;;;4.28;3.20;;;;;;;28.68;28.75;99945.81;5071682;28;20038;-62
2023/06/14 12:39:21;;;;;;;4.57;3.60;;;;;;;28.02;28.62;99942.19;5071277;28;20025;-62
2023/06/14 12:41:48;;;;;;;4.87;3.40;;;;;;;28.37;28.00;99932.66;5071661;28;20032;-62
2023/06/14 12:44:15;;;;;;;5.88;3.88;;;;;;;29.04;27.97;99929.59;5075292;28;20338;-62
2023/06/14 12:46:41;;;;;;;5.47;3.50;;;;;;;29.54;27.59;99945.34;5075556;28;20122;-62
2023/06/14 12:49:13;;;;;;;4.35;3.72;;;;;;;29.20;28.22;99936.38;5075224;28;20123;-62
2023/06/14 12:51:39;;;;;;;5.88;3.42;;;;;;;29.95;28.53;99932.34;5075403;28;20097;-62
2023/06/14 12:54:05;;;;;;;4.47;3.75;;;;;;;30.01;27.15;99935.81;5075312;28;20044;-61
2023/06/14 12:56:31;;;;;;;4.57;3.42;;;;;;;29.83;27.38;99939.50;5075319;28;20131;-61
2023/06/14 12:58:56;;;;;;;4.38;3.72;;;;;;;28.78;27.57;99947.59;5075323;28;20032;-62
2023/06/14 13:01:22;;;;;;;3.78;3.40;;;;;;;28.09;28.88;99939.06;5075319;28;20036;-62
2023/06/14 13:03:47;;;;;;;5.10;3.58;;;;;;;28.70;28.67;99943.59;5075239;28;20481;-62
2023/06/14 13:06:13;;;;;;;4.30;2.95;;;;;;;29.09;28.21;99939.66;5075019;28;20037;-62
2023/06/14 13:08:39;;;;;;;5.63;3.50;;;;;;;30.00;27.11;99950.66;5074802;28;20542;-62
2023/06/14 13:11:04;;;;;;;4.28;3.58;;;;;;;28.74;28.27;99944.63;5074896;28;20028;-62
2023/06/14 13:13:29;;;;;;;3.92;3.50;;;;;;;29.20;28.03;99944.59;5075042;28;20409;-63
2023/06/14 13:15:55;;;;;;;4.05;3.20;;;;;;;29.43;27.32;99942.78;5074947;28;20032;-63
2023/06/14 13:18:20;;;;;;;6.28;3.50;;;;;;;29.67;26.89;99947.28;5074745;28;20044;-62
2023/06/14 13:20:46;;;;;;;3.72;3.25;;;;;;;29.02;27.89;99940.03;5074596;28;20120;-62
2023/06/14 13:23:12;;;;;;;5.05;3.28;;;;;;;29.04;28.58;99945.22;5074790;28;20036;-62
2023/06/14 13:25:38;;;;;;;4.25;3.08;;;;;;;29.42;27.15;99941.16;5074539;28;20426;-62
2023/06/14 13:28:04;;;;;;;4.38;2.85;;;;;;;29.09;27.95;99939.66;5074818;28;20635;-64
2023/06/14 13:30:30;;;;;;;4.95;3.13;;;;;;;28.65;28.04;99954.66;5074290;28;20051;-62
2023/06/14 13:32:56;;;;;;;5.07;3.33;;;;;;;28.24;29.60;99944.34;5074653;28;20040;-62
2023/06/14 13:35:22;;;;;;;4.80;2.80;;;;;;;28.04;29.80;99939.97;5074596;28;20032;-62
2023/06/14 13:37:47;;;;;;;5.18;3.50;;;;;;;28.24;29.01;99943.53;5074523;28;20040;-62
2023/06/14 13:40:13;;;;;;;6.65;3.08;;;;;;;27.82;29.32;99942.47;5074232;28;20047;-60
2023/06/14 13:42:38;;;;;;;4.00;3.15;;;;;;;27.05;30.14;99939.81;5074448;28;20067;-61
2023/06/14 13:45:05;;;;;;;4.57;3.20;;;;;;;27.40;30.09;99946.00;5073137;28;20148;-60
2023/06/14 13:47:31;;;;;;;4.35;3.05;;;;;;;27.29;30.19;99943.38;5074297;28;20037;-61
2023/06/14 13:49:56;;;;;;;4.72;3.30;;;;;;;26.96;30.36;99934.16;5074031;28;20067;-61
2023/06/14 13:52:22;;;;;;;6.10;3.53;;;;;;;26.86;30.87;99939.72;5074277;28;20067;-61
2023/06/14 13:54:47;;;;;;;5.05;3.28;;;;;;;27.07;30.33;99937.63;5073741;28;20040;-60
2023/06/14 13:57:13;;;;;;;3.95;2.80;;;;;;;26.80;30.58;99921.78;5074393;28;20482;-61
2023/06/14 13:59:39;;;;;;;4.05;2.95;;;;;;;26.85;30.13;99935.34;5073896;28;20033;-62
2023/06/14 14:02:06;;;;;;;5.55;3.10;;;;;;;26.80;29.94;99927.22;5074194;28;20483;-62
2023/06/14 14:04:31;;;;;;;6.93;3.07;;;;;;;26.69;30.32;99929.25;5074161;28;20032;-62
2023/06/14 14:06:57;;;;;;;3.38;3.08;;;;;;;26.86;30.33;99936.16;5073987;28;20094;-62
2023/06/14 14:09:22;;;;;;;6.20;3.08;;;;;;;26.82;29.88;99935.94;5073778;28;20098;-62
2023/06/14 14:11:48;;;;;;;4.72;3.10;;;;;;;26.77;29.67;99936.00;5073814;28;20044;-61
2023/06/14 14:14:14;;;;;;;4.30;3.08;;;;;;;27.05;29.21;99937.09;5073898;28;20037;-61
2023/06/14 14:16:39;;;;;;;4.18;2.88;;;;;;;26.88;29.07;99923.88;5073768;28;20143;-62
2023/06/14 14:19:06;;;;;;;4.47;2.70;;;;;;;26.99;29.21;99919.91;5073514;28;20041;-61
2023/06/14 14:21:32;;;;;;;4.23;2.80;;;;;;;27.01;28.96;99922.38;5073583;28;20047;-62
2023/06/14 14:23:57;;;;;;;4.30;2.70;;;;;;;26.85;29.04;99923.63;5073749;28;20286;-62
2023/06/14 14:26:23;;;;;;;4.65;2.75;;;;;;;26.55;29.01;99928.28;5073566;28;20040;-62
2023/06/14 14:28:49;;;;;;;5.22;3.03;;;;;;;26.24;29.75;99927.66;5073309;28;20043;-62
2023/06/14 14:31:14;;;;;;;4.47;2.75;;;;;;;26.11;29.52;99931.84;5073453;28;20033;-61
2023/06/14 14:33:40;;;;;;;3.80;2.80;;;;;;;26.25;29.87;99937.50;5073455;28;20063;-61
2023/06/14 14:36:06;;;;;;;5.78;2.70;;;;;;;26.11;29.99;99937.31;5073384;28;20039;-62
2023/06/14 14:38:32;;;;;;;3.90;3.03;;;;;;;26.09;30.43;99935.97;5073102;28;20123;-61
2023/06/14 14:40:57;;;;;;;5.45;2.50;;;;;;;26.14;30.05;99930.47;5073346;28;20119;-61
2023/06/14 14:43:23;;;;;;;3.50;2.72;;;;;;;26.15;30.74;99946.56;5073378;28;20127;-60
2023/06/14 14:45:48;;;;;;;4.43;2.75;;;;;;;26.12;30.00;99938.94;5073277;28;20558;-61
2023/06/14 14:48:13;;;;;;;3.17;2.83;;;;;;;26.12;30.61;99938.94;5073294;28;20586;-61
2023/06/14 14:50:39;;;;;;;3.15;2.85;;;;;;;26.12;29.71;99933.47;5072822;28;20044;-62
2023/06/14 14:53:06;;;;;;;4.75;3.00;;;;;;;26.16;29.88;99933.75;5073191;28;20387;-61
2023/06/14 14:55:34;;;;;;;4.25;2.90;;;;;;;26.10;29.84;99929.41;5073157;28;20074;-61
2023/06/14 14:58:00;;;;;;;4.15;2.63;;;;;;;26.31;29.48;99935.53;5073168;28;20123;-62
2023/06/14 15:00:26;;;;;;;4.95;2.78;;;;;;;26.20;29.26;99938.34;5072841;28;20040;-61
2023/06/14 15:02:51;;;;;;;6.40;2.70;;;;;;;26.20;29.52;99934.78;5072875;28;20048;-62
2023/06/14 15:05:17;;;;;;;5.68;2.78;;;;;;;26.17;29.67;99938.91;5071961;28;20040;-62
2023/06/14 15:07:44;;;;;;;4.40;2.63;;;;;;;25.75;29.40;99931.25;5071600;28;20110;-60
2023/06/14 15:10:10;;;;;;;3.95;3.00;;;;;;;25.94;29.47;99931.41;5072488;28;20043;-61
2023/06/14 15:12:35;;;;;;;4.85;3.30;;;;;;;25.91;28.93;99932.81;5072628;28;20119;-61
2023/06/14 15:15:01;;;;;;;4.63;3.10;;;;;;;26.07;29.17;99928.06;5072757;28;20138;-62
2023/06/14 15:17:26;;;;;;;6.85;2.78;;;;;;;26.04;29.69;99925.91;5072510;28;20040;-61
2023/06/14 15:19:52;;;;;;;3.28;2.70;;;;;;;25.92;30.31;99918.06;5072328;28;20037;-61
2023/06/14 15:22:17;;;;;;;3.65;2.40;;;;;;;25.99;30.11;99934.13;5072666;28;20029;-61
2023/06/14 15:24:43;;;;;;;4.18;3.00;;;;;;;25.85;30.05;99927.66;5072625;28;20397;-61
2023/06/14 15:27:10;;;;;;;5.10;2.65;;;;;;;25.60;30.42;99937.56;5072403;28;20052;-62
2023/06/14 15:29:36;;;;;;;4.13;2.85;;;;;;;25.74;30.09;99926.88;5072296;28;20111;-60
2023/06/14 15:32:02;;;;;;;3.75;2.67;;;;;;;25.80;30.04;99930.41;5072245;28;20426;-61
2023/06/14 15:34:27;;;;;;;4.35;2.80;;;;;;;25.85;29.84;99927.66;5072364;28;20405;-60
2023/06/14 15:36:52;;;;;;;4.53;3.15;;;;;;;25.62;30.67;99935.38;5072245;28;20052;-61
2023/06/14 15:39:18;;;;;;;4.70;3.05;;;;;;;25.65;30.40;99923.91;5072004;28;20040;-64
2023/06/14 15:41:43;;;;;;;4.15;2.65;;;;;;;25.56;30.10;99920.16;5072217;28;20070;-61
2023/06/14 15:44:09;;;;;;;4.30;3.03;;;;;;;25.57;29.97;99919.06;5072219;28;20040;-61
2023/06/14 15:46:35;;;;;;;3.58;2.97;;;;;;;25.44;30.33;99928.66;5072004;28;20044;-61
2023/06/14 15:49:00;;;;;;;4.53;2.58;;;;;;;25.46;30.76;99928.38;5071953;28;20040;-61
2023/06/14 15:51:26;;;;;;;4.15;2.90;;;;;;;25.63;31.10;99930.75;5071942;28;20033;-61
2023/06/14 15:53:52;;;;;;;6.07;2.97;;;;;;;25.45;30.63;99929.47;5072190;28;20044;-61
2023/06/14 15:56:17;;;;;;;3.72;3.15;;;;;;;25.21;30.72;99923.81;5072009;28;20036;-61